ADDS METAR Data INFO
IDs: Format: Raw Decoded Include TAF

Data at: 0258 UTC 21 Jan 2018

KSNY 210253Z AUTO 03009KT 10SM OVC015 M01/M02 A2986 RMK AO2 SLP142 T10111022 50011
KSNY 210153Z AUTO 02012KT 10SM OVC015 M01/M02 A2987 RMK AO2 SLP142 T10061022
KSNY 210109Z AUTO 02010KT 10SM OVC010 M01/M02 A2986 RMK AO2 T10061022
KSNY 210053Z AUTO 01011KT 10SM OVC009 M01/M02 A2985 RMK AO2 CIG 008V012 SLP137 T10061022
KSNY 210001Z AUTO 02014KT 10SM OVC009 00/M02 A2983 RMK AO2 T00001017
KSNY 202353Z AUTO 02010KT 10SM OVC011 00/M02 A2983 RMK AO2 CIG 008V013 SLP123 T00001017 10033 20000 53013
KSNY 202253Z AUTO 02011KT 10SM BKN011 01/M02 A2981 RMK AO2 SLP117 T00061017
KSNY 202153Z AUTO 01012KT 10SM FEW013 02/M02 A2980 RMK AO2 SLP113 T00171017
KSNY 202053Z AUTO 03010KT 10SM CLR 02/M02 A2978 RMK AO2 SLP108 T00221017 56018
KSNY 201953Z AUTO 04010KT 10SM CLR 02/M02 A2979 RMK AO2 SLP107 T00221017
KSNY 201853Z AUTO 02011KT 10SM CLR 03/M02 A2982 RMK AO2 SLP113 T00281017
KSNY 201753Z AUTO 04011KT 10SM CLR 03/M02 A2984 RMK AO2 SLP120 T00331017 10039 21039 50012
KSNY 201653Z AUTO 02009KT 10SM CLR 02/M01 A2985 RMK AO2 SLP120 T00171011
KSNY 201553Z AUTO 02007KT 10SM CLR 00/M02 A2982 RMK AO2 SLP118 T00001017
KSNY 201453Z AUTO 33006KT 10SM CLR M03/M04 A2980 RMK AO2 SLP115 T10281039 53012
KSNY 201353Z AUTO 10004KT 10SM CLR M03/M05 A2977 RMK AO2 SLP104 T10281050
KSNY 201253Z AUTO 33006KT 10SM CLR M03/M04 A2976 RMK AO2 SLP094 T10281044
KSNY 201153Z AUTO 31009KT 10SM CLR M02/M04 A2976 RMK AO2 SLP093 T10171039 10017 21033 53008
KSNY 201053Z AUTO 26005KT 10SM CLR M02/M03 A2974 RMK AO2 SLP081 T10171033
KSNY 200953Z AUTO 23003KT 10SM CLR M03/M05 A2974 RMK AO2 SLP076 T10331050
KSNY 200853Z AUTO 15004KT 10SM CLR M03/M05 A2974 RMK AO2 SLP076 T10331050 56008
KSNY 200753Z AUTO 16003KT 10SM CLR M02/M05 A2975 RMK AO2 SLP074 T10171050
KSNY 200653Z AUTO 12006KT 10SM CLR 01/M04 A2976 RMK AO2 SLP076 T00061039 401111022
KSNY 200553Z AUTO 00000KT 10SM CLR 00/M04 A2977 RMK AO2 SLP081 T00001039 10044 20000 51009
KSNY 200453Z AUTO 14004KT 10SM CLR 02/M04 A2976 RMK AO2 SLP076 T00221039
KSNY 200353Z AUTO 03003KT 10SM CLR 01/M04 A2975 RMK AO2 SLP087 T00111039
KSNY 200253Z AUTO VRB03KT 10SM CLR 02/M04 A2974 RMK AO2 SLP082 T00171044 51015
KSNY 200153Z AUTO 17003KT 10SM CLR 01/M04 A2973 RMK AO2 SLP083 T00111039
KSNY 200053Z AUTO 30007KT 10SM CLR 04/M04 A2970 RMK AO2 SLP074 T00441044
KSNY 192353Z AUTO 23009KT 10SM CLR 04/M04 A2969 RMK AO2 SLP066 T00441039 10111 20044 53002
KSNY 192253Z AUTO 22008KT 10SM CLR 07/M02 A2969 RMK AO2 SLP057 T00671022
KSNY 192153Z AUTO 29005KT 10SM CLR 11/M02 A2968 RMK AO2 SLP047 T01111017
KSNY 192053Z AUTO 27004KT 10SM CLR 11/M03 A2968 RMK AO2 SLP051 T01061028 55021
KSNY 191953Z AUTO 31006KT 10SM CLR 11/M03 A2968 RMK AO2 SLP043 T01111033
KSNY 191853Z AUTO 33008KT 10SM CLR 10/M03 A2971 RMK AO2 SLP060 T01001028
KSNY 191753Z AUTO 34006KT 10SM CLR 10/M04 A2975 RMK AO2 SLP075 T01001039 10100 21022 50004
KSNY 191653Z AUTO 31009KT 10SM CLR 08/M04 A2976 RMK AO2 SLP080 T00831044
KSNY 191553Z AUTO 30008KT 10SM CLR 03/M05 A2974 RMK AO2 SLP084 T00331050